sensor_id;sensor_type;location;lat;lon;timestamp;pressure;altitude;pressure_sealevel;temperature;humidity
50380;BME280;37474;59.468;18.040;2023-03-12T00:01:31;99306.34;;;-13.49;100.00
50380;BME280;37474;59.468;18.040;2023-03-12T00:04:04;99302.63;;;-13.67;100.00
50380;BME280;37474;59.468;18.040;2023-03-12T00:06:34;99307.47;;;-13.37;100.00
50380;BME280;37474;59.468;18.040;2023-03-12T00:09:03;99304.88;;;-13.41;100.00
50380;BME280;37474;59.468;18.040;2023-03-12T00:11:31;99310.47;;;-13.50;100.00
50380;BME280;37474;59.468;18.040;2023-03-12T00:14:01;99307.84;;;-13.57;100.00
50380;BME280;37474;59.468;18.040;2023-03-12T00:16:32;99312.94;;;-13.89;100.00
50380;BME280;37474;59.468;18.040;2023-03-12T00:19:00;99311.69;;;-14.06;100.00
50380;BME280;37474;59.468;18.040;2023-03-12T00:21:31;99314.81;;;-14.15;100.00
50380;BME280;37474;59.468;18.040;2023-03-12T00:24:00;99306.41;;;-14.20;100.00
50380;BME280;37474;59.468;18.040;2023-03-12T00:26:28;99311.53;;;-14.13;100.00
50380;BME280;37474;59.468;18.040;2023-03-12T00:28:58;99320.53;;;-14.18;100.00
50380;BME280;37474;59.468;18.040;2023-03-12T00:31:30;99309.59;;;-14.24;100.00
50380;BME280;37474;59.468;18.040;2023-03-12T00:34:02;99308.78;;;-14.23;100.00
50380;BME280;37474;59.468;18.040;2023-03-12T00:36:32;99310.91;;;-14.39;100.00
50380;BME280;37474;59.468;18.040;2023-03-12T00:39:13;99265.47;;;-14.31;100.00
50380;BME280;37474;59.468;18.040;2023-03-12T00:41:43;99318.44;;;-14.35;100.00
50380;BME280;37474;59.468;18.040;2023-03-12T00:44:11;99316.44;;;-14.16;100.00
50380;BME280;37474;59.468;18.040;2023-03-12T00:46:41;99316.41;;;-14.17;100.00
50380;BME280;37474;59.468;18.040;2023-03-12T00:49:12;99318.28;;;-14.43;100.00
50380;BME280;37474;59.468;18.040;2023-03-12T00:51:40;99319.75;;;-14.50;100.00
50380;BME280;37474;59.468;18.040;2023-03-12T00:54:08;99325.81;;;-14.72;100.00
50380;BME280;37474;59.468;18.040;2023-03-12T00:56:38;99318.19;;;-14.78;100.00
50380;BME280;37474;59.468;18.040;2023-03-12T00:59:06;99323.16;;;-14.79;100.00
50380;BME280;37474;59.468;18.040;2023-03-12T01:01:36;99315.00;;;-14.74;100.00
50380;BME280;37474;59.468;18.040;2023-03-12T01:04:05;99320.38;;;-14.90;100.00
50380;BME280;37474;59.468;18.040;2023-03-12T01:06:34;99300.69;;;-15.12;100.00
50380;BME280;37474;59.468;18.040;2023-03-12T01:09:06;99320.03;;;-15.02;100.00
50380;BME280;37474;59.468;18.040;2023-03-12T01:11:36;99278.69;;;-15.29;100.00
50380;BME280;37474;59.468;18.040;2023-03-12T01:14:08;99326.75;;;-15.28;100.00
50380;BME280;37474;59.468;18.040;2023-03-12T01:16:36;99315.78;;;-15.35;100.00
50380;BME280;37474;59.468;18.040;2023-03-12T01:19:04;99323.25;;;-15.35;100.00
50380;BME280;37474;59.468;18.040;2023-03-12T01:21:35;99327.50;;;-15.02;100.00
50380;BME280;37474;59.468;18.040;2023-03-12T01:24:03;99328.84;;;-15.13;100.00
50380;BME280;37474;59.468;18.040;2023-03-12T01:26:33;99268.97;;;-15.50;100.00
50380;BME280;37474;59.468;18.040;2023-03-12T01:29:03;99323.72;;;-15.18;100.00
50380;BME280;37474;59.468;18.040;2023-03-12T01:31:30;99320.59;;;-15.11;100.00
50380;BME280;37474;59.468;18.040;2023-03-12T01:34:00;99326.84;;;-15.25;100.00
50380;BME280;37474;59.468;18.040;2023-03-12T01:36:31;99318.78;;;-15.16;100.00
50380;BME280;37474;59.468;18.040;2023-03-12T01:39:00;99328.50;;;-15.26;100.00
50380;BME280;37474;59.468;18.040;2023-03-12T01:41:32;99329.97;;;-15.02;100.00
50380;BME280;37474;59.468;18.040;2023-03-12T01:44:00;99332.00;;;-15.19;100.00
50380;BME280;37474;59.468;18.040;2023-03-12T01:46:32;99332.56;;;-15.28;100.00
50380;BME280;37474;59.468;18.040;2023-03-12T01:49:07;99332.56;;;-15.28;100.00
50380;BME280;37474;59.468;18.040;2023-03-12T01:51:38;99335.50;;;-15.12;100.00
50380;BME280;37474;59.468;18.040;2023-03-12T01:54:15;99330.22;;;-15.23;100.00
50380;BME280;37474;59.468;18.040;2023-03-12T01:56:44;99327.16;;;-15.14;100.00
50380;BME280;37474;59.468;18.040;2023-03-12T01:59:20;99346.28;;;-15.12;100.00
50380;BME280;37474;59.468;18.040;2023-03-12T02:01:49;99344.09;;;-15.01;100.00
50380;BME280;37474;59.468;18.040;2023-03-12T02:04:21;99345.44;;;-15.12;100.00
50380;BME280;37474;59.468;18.040;2023-03-12T02:06:57;99350.81;;;-14.99;100.00
50380;BME280;37474;59.468;18.040;2023-03-12T02:09:29;99352.25;;;-15.05;100.00
50380;BME280;37474;59.468;18.040;2023-03-12T02:11:59;99354.88;;;-15.01;100.00
50380;BME280;37474;59.468;18.040;2023-03-12T02:14:27;99355.28;;;-15.15;100.00
50380;BME280;37474;59.468;18.040;2023-03-12T02:16:57;99355.19;;;-15.19;100.00
50380;BME280;37474;59.468;18.040;2023-03-12T02:19:34;99276.28;;;-15.84;100.00
50380;BME280;37474;59.468;18.040;2023-03-12T02:22:05;99363.72;;;-15.39;100.00
50380;BME280;37474;59.468;18.040;2023-03-12T02:24:43;99309.72;;;-15.73;100.00
50380;BME280;37474;59.468;18.040;2023-03-12T02:27:16;99371.22;;;-15.37;100.00
50380;BME280;37474;59.468;18.040;2023-03-12T02:29:47;99366.91;;;-15.43;100.00
50380;BME280;37474;59.468;18.040;2023-03-12T02:32:20;99360.84;;;-15.51;100.00
50380;BME280;37474;59.468;18.040;2023-03-12T02:34:50;99370.75;;;-15.26;100.00
50380;BME280;37474;59.468;18.040;2023-03-12T02:37:17;99379.41;;;-15.40;99.64
50380;BME280;37474;59.468;18.040;2023-03-12T02:39:53;99364.34;;;-15.46;100.00
50380;BME280;37474;59.468;18.040;2023-03-12T02:42:24;99369.72;;;-15.59;100.00
50380;BME280;37474;59.468;18.040;2023-03-12T02:44:54;99376.72;;;-15.48;100.00
50380;BME280;37474;59.468;18.040;2023-03-12T02:47:22;99335.53;;;-15.95;100.00
50380;BME280;37474;59.468;18.040;2023-03-12T02:49:51;99381.09;;;-15.67;100.00
50380;BME280;37474;59.468;18.040;2023-03-12T02:52:23;99373.56;;;-15.70;100.00
50380;BME280;37474;59.468;18.040;2023-03-12T02:54:50;99383.69;;;-15.64;100.00
50380;BME280;37474;59.468;18.040;2023-03-12T02:57:18;99384.41;;;-15.67;100.00
50380;BME280;37474;59.468;18.040;2023-03-12T02:59:51;99379.56;;;-15.64;99.06
50380;BME280;37474;59.468;18.040;2023-03-12T03:02:18;99387.50;;;-15.47;99.66
50380;BME280;37474;59.468;18.040;2023-03-12T03:04:46;99399.09;;;-15.46;98.11
50380;BME280;37474;59.468;18.040;2023-03-12T03:07:16;99407.06;;;-15.56;98.31
50380;BME280;37474;59.468;18.040;2023-03-12T03:09:44;99402.28;;;-15.50;98.03
50380;BME280;37474;59.468;18.040;2023-03-12T03:12:12;99415.91;;;-15.66;98.38
50380;BME280;37474;59.468;18.040;2023-03-12T03:14:43;99422.09;;;-15.80;100.00
50380;BME280;37474;59.468;18.040;2023-03-12T03:17:13;99420.63;;;-15.74;100.00
50380;BME280;37474;59.468;18.040;2023-03-12T03:19:40;99356.75;;;-16.30;99.24
50380;BME280;37474;59.468;18.040;2023-03-12T03:22:12;99426.22;;;-16.05;99.90
50380;BME280;37474;59.468;18.040;2023-03-12T03:24:40;99428.69;;;-15.81;99.32
50380;BME280;37474;59.468;18.040;2023-03-12T03:27:07;99433.31;;;-15.91;99.39
50380;BME280;37474;59.468;18.040;2023-03-12T03:29:40;99433.75;;;-16.03;99.13
50380;BME280;37474;59.468;18.040;2023-03-12T03:32:08;99440.47;;;-15.99;99.01
50380;BME280;37474;59.468;18.040;2023-03-12T03:34:37;99433.94;;;-15.97;99.13
50380;BME280;37474;59.468;18.040;2023-03-12T03:37:10;99423.63;;;-16.09;99.37
50380;BME280;37474;59.468;18.040;2023-03-12T03:39:39;99440.38;;;-15.77;99.53
50380;BME280;37474;59.468;18.040;2023-03-12T03:42:07;99439.81;;;-15.69;97.92
50380;BME280;37474;59.468;18.040;2023-03-12T03:44:39;99446.53;;;-15.92;97.51
50380;BME280;37474;59.468;18.040;2023-03-12T03:47:06;99447.56;;;-15.86;98.68
50380;BME280;37474;59.468;18.040;2023-03-12T03:49:34;99453.59;;;-15.78;98.96
50380;BME280;37474;59.468;18.040;2023-03-12T03:52:06;99452.31;;;-15.92;98.40
50380;BME280;37474;59.468;18.040;2023-03-12T03:54:36;99461.28;;;-15.95;98.78
50380;BME280;37474;59.468;18.040;2023-03-12T03:57:04;99459.06;;;-15.88;98.92
50380;BME280;37474;59.468;18.040;2023-03-12T03:59:34;99462.28;;;-15.90;98.98
50380;BME280;37474;59.468;18.040;2023-03-12T04:02:04;99467.91;;;-15.96;98.80
50380;BME280;37474;59.468;18.040;2023-03-12T04:04:31;99469.63;;;-15.93;99.03
50380;BME280;37474;59.468;18.040;2023-03-12T04:07:01;99466.81;;;-15.79;99.31
50380;BME280;37474;59.468;18.040;2023-03-12T04:09:35;99473.47;;;-15.78;99.18
50380;BME280;37474;59.468;18.040;2023-03-12T04:12:07;99477.63;;;-15.77;99.31
50380;BME280;37474;59.468;18.040;2023-03-12T04:14:38;99411.69;;;-16.19;99.48
50380;BME280;37474;59.468;18.040;2023-03-12T04:17:07;99446.72;;;-16.10;100.00
50380;BME280;37474;59.468;18.040;2023-03-12T04:19:42;99481.34;;;-15.65;100.00
50380;BME280;37474;59.468;18.040;2023-03-12T04:22:09;99480.84;;;-15.81;100.00
50380;BME280;37474;59.468;18.040;2023-03-12T04:24:41;99427.66;;;-16.11;100.00
50380;BME280;37474;59.468;18.040;2023-03-12T04:27:10;99489.97;;;-15.80;100.00
50380;BME280;37474;59.468;18.040;2023-03-12T04:29:38;99494.97;;;-15.78;100.00
50380;BME280;37474;59.468;18.040;2023-03-12T04:32:09;99495.19;;;-15.72;100.00
50380;BME280;37474;59.468;18.040;2023-03-12T04:34:39;99498.16;;;-15.57;100.00
50380;BME280;37474;59.468;18.040;2023-03-12T04:37:07;99498.09;;;-15.58;100.00
50380;BME280;37474;59.468;18.040;2023-03-12T04:39:42;99503.78;;;-15.37;100.00
50380;BME280;37474;59.468;18.040;2023-03-12T04:42:12;99503.53;;;-15.18;100.00
50380;BME280;37474;59.468;18.040;2023-03-12T04:44:40;99503.16;;;-15.30;100.00
50380;BME280;37474;59.468;18.040;2023-03-12T04:47:10;99503.59;;;-14.89;100.00
50380;BME280;37474;59.468;18.040;2023-03-12T04:49:38;99445.56;;;-15.43;100.00
50380;BME280;37474;59.468;18.040;2023-03-12T04:52:06;99508.13;;;-15.04;100.00
50380;BME280;37474;59.468;18.040;2023-03-12T04:54:36;99509.78;;;-15.03;100.00
50380;BME280;37474;59.468;18.040;2023-03-12T04:57:07;99506.97;;;-15.14;100.00
50380;BME280;37474;59.468;18.040;2023-03-12T04:59:35;99471.66;;;-15.31;100.00
50380;BME280;37474;59.468;18.040;2023-03-12T05:02:05;99521.38;;;-15.04;100.00
50380;BME280;37474;59.468;18.040;2023-03-12T05:04:34;99520.00;;;-14.94;100.00
50380;BME280;37474;59.468;18.040;2023-03-12T05:07:02;99518.94;;;-14.75;100.00
50380;BME280;37474;59.468;18.040;2023-03-12T05:09:32;99519.75;;;-14.76;100.00
50380;BME280;37474;59.468;18.040;2023-03-12T05:12:02;99517.66;;;-14.62;100.00
50380;BME280;37474;59.468;18.040;2023-03-12T05:14:31;99508.66;;;-14.59;100.00
50380;BME280;37474;59.468;18.040;2023-03-12T05:16:59;99527.41;;;-14.40;100.00
50380;BME280;37474;59.468;18.040;2023-03-12T05:19:30;99527.47;;;-14.08;100.00
50380;BME280;37474;59.468;18.040;2023-03-12T05:21:58;99532.59;;;-14.02;100.00
50380;BME280;37474;59.468;18.040;2023-03-12T05:24:26;99513.84;;;-13.90;100.00
50380;BME280;37474;59.468;18.040;2023-03-12T05:26:58;99537.16;;;-13.56;100.00
50380;BME280;37474;59.468;18.040;2023-03-12T05:29:26;99534.88;;;-13.14;100.00
50380;BME280;37474;59.468;18.040;2023-03-12T05:31:56;99539.56;;;-12.90;100.00
50380;BME280;37474;59.468;18.040;2023-03-12T05:34:24;99540.44;;;-12.52;100.00
50380;BME280;37474;59.468;18.040;2023-03-12T05:36:52;99530.59;;;-12.44;100.00
50380;BME280;37474;59.468;18.040;2023-03-12T05:39:19;99544.44;;;-12.20;100.00
50380;BME280;37474;59.468;18.040;2023-03-12T05:41:51;99545.88;;;-11.89;100.00
50380;BME280;37474;59.468;18.040;2023-03-12T05:44:22;99538.75;;;-11.69;100.00
50380;BME280;37474;59.468;18.040;2023-03-12T05:46:55;99553.75;;;-11.68;100.00
50380;BME280;37474;59.468;18.040;2023-03-12T05:49:25;99558.94;;;-11.59;100.00
50380;BME280;37474;59.468;18.040;2023-03-12T05:51:53;99556.78;;;-11.39;100.00
50380;BME280;37474;59.468;18.040;2023-03-12T05:54:23;99557.06;;;-11.24;100.00
50380;BME280;37474;59.468;18.040;2023-03-12T05:56:51;99560.50;;;-11.17;100.00
50380;BME280;37474;59.468;18.040;2023-03-12T05:59:25;99559.06;;;-11.04;100.00
50380;BME280;37474;59.468;18.040;2023-03-12T06:01:53;99559.22;;;-10.94;100.00
50380;BME280;37474;59.468;18.040;2023-03-12T06:04:23;99569.38;;;-10.84;100.00
50380;BME280;37474;59.468;18.040;2023-03-12T06:06:56;99567.00;;;-10.77;100.00
50380;BME280;37474;59.468;18.040;2023-03-12T06:09:24;99580.63;;;-10.58;100.00
50380;BME280;37474;59.468;18.040;2023-03-12T06:11:52;99577.53;;;-10.42;100.00
50380;BME280;37474;59.468;18.040;2023-03-12T06:14:24;99587.78;;;-10.26;100.00
50380;BME280;37474;59.468;18.040;2023-03-12T06:16:52;99582.28;;;-9.95;100.00
50380;BME280;37474;59.468;18.040;2023-03-12T06:19:19;99591.09;;;-9.59;100.00
50380;BME280;37474;59.468;18.040;2023-03-12T06:21:51;99602.16;;;-9.42;100.00
50380;BME280;37474;59.468;18.040;2023-03-12T06:24:20;99601.50;;;-9.27;100.00
50380;BME280;37474;59.468;18.040;2023-03-12T06:26:48;99598.28;;;-9.11;100.00
50380;BME280;37474;59.468;18.040;2023-03-12T06:29:20;99615.16;;;-8.96;100.00
50380;BME280;37474;59.468;18.040;2023-03-12T06:31:48;99611.16;;;-8.77;100.00
50380;BME280;37474;59.468;18.040;2023-03-12T06:34:17;99611.22;;;-8.66;100.00
50380;BME280;37474;59.468;18.040;2023-03-12T06:36:50;99620.47;;;-8.62;100.00
50380;BME280;37474;59.468;18.040;2023-03-12T06:39:17;99627.25;;;-8.52;100.00
50380;BME280;37474;59.468;18.040;2023-03-12T06:41:46;99613.91;;;-8.48;100.00
50380;BME280;37474;59.468;18.040;2023-03-12T06:44:18;99626.47;;;-8.45;100.00
50380;BME280;37474;59.468;18.040;2023-03-12T06:46:46;99634.13;;;-8.27;100.00
50380;BME280;37474;59.468;18.040;2023-03-12T06:49:14;99641.66;;;-8.27;100.00
50380;BME280;37474;59.468;18.040;2023-03-12T06:51:46;99640.97;;;-8.04;100.00
50380;BME280;37474;59.468;18.040;2023-03-12T06:54:14;99635.09;;;-8.03;100.00
50380;BME280;37474;59.468;18.040;2023-03-12T06:56:42;99636.94;;;-7.75;100.00
50380;BME280;37474;59.468;18.040;2023-03-12T06:59:14;99630.22;;;-7.74;100.00
50380;BME280;37474;59.468;18.040;2023-03-12T07:01:43;99647.03;;;-7.70;100.00
50380;BME280;37474;59.468;18.040;2023-03-12T07:04:11;99652.88;;;-7.76;100.00
50380;BME280;37474;59.468;18.040;2023-03-12T07:06:43;99655.44;;;-7.62;100.00
50380;BME280;37474;59.468;18.040;2023-03-12T07:09:16;99666.44;;;-7.40;100.00
50380;BME280;37474;59.468;18.040;2023-03-12T07:11:48;99674.00;;;-7.41;100.00
50380;BME280;37474;59.468;18.040;2023-03-12T07:14:17;99678.28;;;-7.18;99.09
50380;BME280;37474;59.468;18.040;2023-03-12T07:16:48;99684.09;;;-7.28;100.00
50380;BME280;37474;59.468;18.040;2023-03-12T07:19:16;99685.03;;;-7.04;100.00
50380;BME280;37474;59.468;18.040;2023-03-12T07:21:45;99688.50;;;-6.66;98.31
50380;BME280;37474;59.468;18.040;2023-03-12T07:24:15;99696.91;;;-6.54;100.00
50380;BME280;37474;59.468;18.040;2023-03-12T07:26:44;99697.75;;;-6.49;99.06
50380;BME280;37474;59.468;18.040;2023-03-12T07:29:12;99696.91;;;-6.30;100.00
50380;BME280;37474;59.468;18.040;2023-03-12T07:31:43;99697.75;;;-6.34;100.00
50380;BME280;37474;59.468;18.040;2023-03-12T07:34:13;99699.41;;;-5.92;99.83
50380;BME280;37474;59.468;18.040;2023-03-12T07:36:41;99705.22;;;-5.59;99.61
50380;BME280;37474;59.468;18.040;2023-03-12T07:39:11;99705.13;;;-5.39;97.91
50380;BME280;37474;59.468;18.040;2023-03-12T07:41:39;99706.69;;;-4.98;95.54
50380;BME280;37474;59.468;18.040;2023-03-12T07:44:06;99708.13;;;-4.62;98.12
50380;BME280;37474;59.468;18.040;2023-03-12T07:46:35;99714.16;;;-4.80;94.62
50380;BME280;37474;59.468;18.040;2023-03-12T07:49:04;99707.31;;;-4.63;95.96
50380;BME280;37474;59.468;18.040;2023-03-12T07:51:32;99710.44;;;-4.27;91.41
50380;BME280;37474;59.468;18.040;2023-03-12T07:54:01;99712.88;;;-4.18;91.84
50380;BME280;37474;59.468;18.040;2023-03-12T07:56:31;99710.97;;;-3.90;88.79
50380;BME280;37474;59.468;18.040;2023-03-12T07:59:06;99708.47;;;-3.93;88.85
50380;BME280;37474;59.468;18.040;2023-03-12T08:01:34;99709.41;;;-4.05;88.47
50380;BME280;37474;59.468;18.040;2023-03-12T08:04:03;99716.59;;;-3.62;86.02
50380;BME280;37474;59.468;18.040;2023-03-12T08:06:33;99694.75;;;-3.70;86.31
50380;BME280;37474;59.468;18.040;2023-03-12T08:09:03;99668.81;;;-3.95;86.97
50380;BME280;37474;59.468;18.040;2023-03-12T08:11:31;99709.53;;;-3.32;85.59
50380;BME280;37474;59.468;18.040;2023-03-12T08:13:59;99718.41;;;-3.72;87.75
50380;BME280;37474;59.468;18.040;2023-03-12T08:16:27;99721.00;;;-3.79;87.76
50380;BME280;37474;59.468;18.040;2023-03-12T08:18:55;99725.16;;;-3.74;87.83
50380;BME280;37474;59.468;18.040;2023-03-12T08:21:24;99717.53;;;-3.70;87.45
50380;BME280;37474;59.468;18.040;2023-03-12T08:23:54;99711.06;;;-3.99;86.68
50380;BME280;37474;59.468;18.040;2023-03-12T08:26:22;99731.97;;;-3.80;86.44
50380;BME280;37474;59.468;18.040;2023-03-12T08:28:52;99715.97;;;-3.85;86.34
50380;BME280;37474;59.468;18.040;2023-03-12T08:31:22;99731.28;;;-3.97;86.89
50380;BME280;37474;59.468;18.040;2023-03-12T08:33:52;99740.59;;;-4.00;87.14
50380;BME280;37474;59.468;18.040;2023-03-12T08:36:20;99740.44;;;-3.81;86.49
50380;BME280;37474;59.468;18.040;2023-03-12T08:38:49;99745.41;;;-3.72;86.08
50380;BME280;37474;59.468;18.040;2023-03-12T08:41:20;99742.25;;;-3.94;87.18
50380;BME280;37474;59.468;18.040;2023-03-12T08:43:48;99747.22;;;-3.85;87.35
50380;BME280;37474;59.468;18.040;2023-03-12T08:46:15;99748.16;;;-3.96;87.73
50380;BME280;37474;59.468;18.040;2023-03-12T08:48:43;99720.03;;;-3.66;85.54
50380;BME280;37474;59.468;18.040;2023-03-12T08:51:11;99749.44;;;-3.50;84.62
50380;BME280;37474;59.468;18.040;2023-03-12T08:53:42;99745.75;;;-3.21;83.96
50380;BME280;37474;59.468;18.040;2023-03-12T08:56:12;99750.13;;;-3.37;84.23
50380;BME280;37474;59.468;18.040;2023-03-12T08:58:39;99749.00;;;-3.13;83.47
50380;BME280;37474;59.468;18.040;2023-03-12T09:01:08;99759.63;;;-2.83;82.30
50380;BME280;37474;59.468;18.040;2023-03-12T09:03:38;99751.25;;;-2.87;80.81
50380;BME280;37474;59.468;18.040;2023-03-12T09:06:09;99746.00;;;-2.75;80.12
50380;BME280;37474;59.468;18.040;2023-03-12T09:08:39;99747.97;;;-2.97;80.46
50380;BME280;37474;59.468;18.040;2023-03-12T09:11:07;99760.97;;;-2.55;79.83
50380;BME280;37474;59.468;18.040;2023-03-12T09:13:37;99767.66;;;-2.51;78.67
50380;BME280;37474;59.468;18.040;2023-03-12T09:16:25;99763.13;;;-2.27;77.23
50380;BME280;37474;59.468;18.040;2023-03-12T09:18:53;99728.59;;;-2.39;77.00
50380;BME280;37474;59.468;18.040;2023-03-12T09:21:23;99753.94;;;-2.36;77.33
50380;BME280;37474;59.468;18.040;2023-03-12T09:23:53;99758.28;;;-2.46;75.79
50380;BME280;37474;59.468;18.040;2023-03-12T09:26:21;99768.59;;;-2.55;76.85
50380;BME280;37474;59.468;18.040;2023-03-12T09:28:51;99781.66;;;-2.22;76.27
50380;BME280;37474;59.468;18.040;2023-03-12T09:31:18;99786.66;;;-2.18;75.14
50380;BME280;37474;59.468;18.040;2023-03-12T09:33:46;99779.06;;;-2.19;74.86
50380;BME280;37474;59.468;18.040;2023-03-12T09:36:23;99784.63;;;-1.94;74.88
50380;BME280;37474;59.468;18.040;2023-03-12T09:38:51;99783.06;;;-2.03;73.37
50380;BME280;37474;59.468;18.040;2023-03-12T09:41:24;99782.84;;;-1.88;73.65
50380;BME280;37474;59.468;18.040;2023-03-12T09:43:57;99782.72;;;-1.34;71.81
50380;BME280;37474;59.468;18.040;2023-03-12T09:46:31;99793.03;;;-1.91;72.35
50380;BME280;37474;59.468;18.040;2023-03-12T09:49:04;99798.88;;;-1.86;73.74
50380;BME280;37474;59.468;18.040;2023-03-12T09:51:35;99807.13;;;-1.71;72.45
50380;BME280;37474;59.468;18.040;2023-03-12T09:54:09;99801.66;;;-2.01;73.79
50380;BME280;37474;59.468;18.040;2023-03-12T09:56:41;99816.56;;;-1.79;73.18
50380;BME280;37474;59.468;18.040;2023-03-12T09:59:11;99804.59;;;-1.73;73.02
50380;BME280;37474;59.468;18.040;2023-03-12T10:01:46;99810.41;;;-1.65;72.66
50380;BME280;37474;59.468;18.040;2023-03-12T10:04:35;99808.41;;;-1.01;70.92
50380;BME280;37474;59.468;18.040;2023-03-12T10:07:28;99803.63;;;-0.73;68.73
50380;BME280;37474;59.468;18.040;2023-03-12T10:10:15;99813.22;;;-0.86;70.28
50380;BME280;37474;59.468;18.040;2023-03-12T10:13:01;99812.53;;;-0.94;70.29
50380;BME280;37474;59.468;18.040;2023-03-12T10:15:45;99813.53;;;-0.59;68.36
50380;BME280;37474;59.468;18.040;2023-03-12T10:18:20;99817.31;;;-0.77;68.01
50380;BME280;37474;59.468;18.040;2023-03-12T10:20:59;99809.09;;;-0.51;68.10
50380;BME280;37474;59.468;18.040;2023-03-12T10:23:39;99820.78;;;-0.41;67.67
50380;BME280;37474;59.468;18.040;2023-03-12T10:26:13;99819.50;;;0.17;65.63
50380;BME280;37474;59.468;18.040;2023-03-12T10:28:44;99821.53;;;-0.36;64.93
50380;BME280;37474;59.468;18.040;2023-03-12T10:31:18;99826.13;;;-0.96;68.17
50380;BME280;37474;59.468;18.040;2023-03-12T10:33:51;99827.75;;;-0.92;67.74
50380;BME280;37474;59.468;18.040;2023-03-12T10:36:24;99833.13;;;-1.08;69.30
50380;BME280;37474;59.468;18.040;2023-03-12T10:38:52;99836.88;;;-0.81;69.08
50380;BME280;37474;59.468;18.040;2023-03-12T10:41:24;99827.84;;;0.24;66.22
50380;BME280;37474;59.468;18.040;2023-03-12T10:43:56;99832.44;;;0.08;65.24
50380;BME280;37474;59.468;18.040;2023-03-12T10:46:37;99806.09;;;0.09;62.52
50380;BME280;37474;59.468;18.040;2023-03-12T10:49:31;99828.50;;;-0.05;64.42
50380;BME280;37474;59.468;18.040;2023-03-12T10:52:02;99826.94;;;-0.11;65.59
50380;BME280;37474;59.468;18.040;2023-03-12T10:54:35;99827.56;;;0.35;62.72
50380;BME280;37474;59.468;18.040;2023-03-12T10:57:06;99822.72;;;-0.13;64.33
50380;BME280;37474;59.468;18.040;2023-03-12T10:59:37;99828.22;;;0.07;62.84
50380;BME280;37474;59.468;18.040;2023-03-12T11:02:31;99837.72;;;0.36;60.91
50380;BME280;37474;59.468;18.040;2023-03-12T11:05:04;99844.75;;;0.28;62.32
50380;BME280;37474;59.468;18.040;2023-03-12T11:07:44;99846.09;;;-0.33;65.24
50380;BME280;37474;59.468;18.040;2023-03-12T11:10:22;99844.28;;;-0.70;66.61
50380;BME280;37474;59.468;18.040;2023-03-12T11:12:58;99854.78;;;-1.33;69.23
50380;BME280;37474;59.468;18.040;2023-03-12T11:15:38;99856.38;;;-0.39;65.24
50380;BME280;37474;59.468;18.040;2023-03-12T11:18:27;99864.75;;;0.08;61.61
50380;BME280;37474;59.468;18.040;2023-03-12T11:20:57;99860.91;;;-0.10;61.95
50380;BME280;37474;59.468;18.040;2023-03-12T11:23:39;99858.53;;;0.88;60.35
50380;BME280;37474;59.468;18.040;2023-03-12T11:26:11;99859.16;;;0.97;58.29
50380;BME280;37474;59.468;18.040;2023-03-12T11:28:44;99862.19;;;0.43;60.21
50380;BME280;37474;59.468;18.040;2023-03-12T11:31:20;99862.88;;;0.14;60.27
50380;BME280;37474;59.468;18.040;2023-03-12T11:33:56;99864.78;;;0.05;60.45
50380;BME280;37474;59.468;18.040;2023-03-12T11:36:37;99866.72;;;0.32;59.98
50380;BME280;37474;59.468;18.040;2023-03-12T11:39:18;99870.78;;;0.41;59.09
50380;BME280;37474;59.468;18.040;2023-03-12T11:42:07;99856.03;;;-0.21;58.66
50380;BME280;37474;59.468;18.040;2023-03-12T11:44:41;99877.75;;;-0.06;58.21
50380;BME280;37474;59.468;18.040;2023-03-12T11:47:28;99877.03;;;-0.11;57.31
50380;BME280;37474;59.468;18.040;2023-03-12T11:50:12;99878.91;;;0.55;56.45
50380;BME280;37474;59.468;18.040;2023-03-12T11:52:49;99870.47;;;0.16;55.98
50380;BME280;37474;59.468;18.040;2023-03-12T11:55:44;99875.13;;;0.36;54.44
50380;BME280;37474;59.468;18.040;2023-03-12T11:58:41;99884.22;;;0.10;53.32
50380;BME280;37474;59.468;18.040;2023-03-12T12:01:20;99874.72;;;-0.22;53.72
50380;BME280;37474;59.468;18.040;2023-03-12T12:06:55;99879.44;;;-0.04;52.14
50380;BME280;37474;59.468;18.040;2023-03-12T12:09:33;99886.78;;;0.09;50.28
50380;BME280;37474;59.468;18.040;2023-03-12T12:12:13;99871.06;;;0.29;51.40
50380;BME280;37474;59.468;18.040;2023-03-12T12:14:57;99886.00;;;0.07;49.03
50380;BME280;37474;59.468;18.040;2023-03-12T12:17:38;99836.88;;;0.00;48.62
50380;BME280;37474;59.468;18.040;2023-03-12T12:20:29;99882.25;;;0.21;49.46
50380;BME280;37474;59.468;18.040;2023-03-12T12:23:13;99876.69;;;0.06;48.45
50380;BME280;37474;59.468;18.040;2023-03-12T12:26:03;99890.44;;;0.36;47.25
50380;BME280;37474;59.468;18.040;2023-03-12T12:31:29;99893.97;;;0.66;47.20
50380;BME280;37474;59.468;18.040;2023-03-12T12:34:16;99889.94;;;0.57;45.38
50380;BME280;37474;59.468;18.040;2023-03-12T12:36:57;99881.19;;;1.00;46.49
50380;BME280;37474;59.468;18.040;2023-03-12T12:39:38;99886.72;;;0.49;44.34
50380;BME280;37474;59.468;18.040;2023-03-12T12:42:17;99890.00;;;0.90;45.72
50380;BME280;37474;59.468;18.040;2023-03-12T12:44:51;99893.38;;;0.90;45.40
50380;BME280;37474;59.468;18.040;2023-03-12T12:47:26;99886.03;;;1.11;45.24
50380;BME280;37474;59.468;18.040;2023-03-12T12:49:59;99895.66;;;0.99;45.31
50380;BME280;37474;59.468;18.040;2023-03-12T12:52:28;99895.97;;;0.53;44.84
50380;BME280;37474;59.468;18.040;2023-03-12T12:55:03;99889.81;;;0.96;46.08
50380;BME280;37474;59.468;18.040;2023-03-12T12:57:37;99891.75;;;1.51;44.75
50380;BME280;37474;59.468;18.040;2023-03-12T13:00:18;99898.28;;;1.62;43.99
50380;BME280;37474;59.468;18.040;2023-03-12T13:02:49;99903.50;;;1.87;43.24
50380;BME280;37474;59.468;18.040;2023-03-12T13:05:21;99894.25;;;2.40;42.45
50380;BME280;37474;59.468;18.040;2023-03-12T13:07:49;99907.16;;;2.07;42.74
50380;BME280;37474;59.468;18.040;2023-03-12T13:10:43;99906.31;;;0.83;45.16
50380;BME280;37474;59.468;18.040;2023-03-12T13:13:23;99905.59;;;0.42;46.41